Time;durP1;ratioP1;P1;durP2;ratioP2;P2;SDS_P1;SDS_P2;PMS_P1;PMS_P2;Temp;Humidity;BMP_temperature;BMP_pressure;BME280_temperature;BME280_humidity;BME280_pressure;Samples;Min_cycle;Max_cycle;Signal;HPM_P1;HPM_P2
2021/12/21 18:01:55;;;;;;;22.17;10.38;;;6.30;99.90;;;;;;6150581;23;20465;-66
2021/12/21 18:04:22;;;;;;;20.42;8.32;;;6.30;99.90;;;;;;6155453;23;20489;-68
2021/12/21 18:06:48;;;;;;;21.40;9.02;;;6.30;99.90;;;;;;6157269;23;20012;-65
2021/12/21 18:09:15;;;;;;;17.58;8.38;;;6.30;99.90;;;;;;6156985;23;20006;-70
2021/12/21 18:11:41;;;;;;;20.42;8.52;;;6.30;99.90;;;;;;6156764;23;20002;-68
2021/12/21 18:14:08;;;;;;;28.75;9.73;;;6.30;99.90;;;;;;6156764;23;20009;-70
2021/12/21 18:16:35;;;;;;;25.40;10.00;;;6.30;99.90;;;;;;6156664;23;20319;-68
2021/12/21 18:19:05;;;;;;;15.95;7.78;;;6.20;99.90;;;;;;6156794;23;20076;-70
2021/12/21 18:21:34;;;;;;;15.63;7.68;;;6.10;99.90;;;;;;6156760;23;20017;-70
2021/12/21 18:24:02;;;;;;;17.50;7.80;;;6.00;99.90;;;;;;6156752;23;20052;-70
2021/12/21 18:26:38;;;;;;;36.00;8.45;;;5.90;99.90;;;;;;6156713;23;20009;-70
2021/12/21 18:29:06;;;;;;;23.27;8.18;;;5.80;99.90;;;;;;6156694;23;20017;-70
2021/12/21 18:31:36;;;;;;;23.80;9.18;;;5.80;99.90;;;;;;6156373;23;20005;-70
2021/12/21 18:34:03;;;;;;;30.58;8.35;;;5.80;99.90;;;;;;6156618;23;20084;-70
2021/12/21 18:36:30;;;;;;;27.08;9.30;;;5.80;99.90;;;;;;6156526;23;19998;-70
2021/12/21 18:38:57;;;;;;;17.05;7.63;;;5.80;99.90;;;;;;6156553;23;20328;-70
2021/12/21 18:41:26;;;;;;;25.80;8.20;;;5.80;99.90;;;;;;6156294;23;20379;-70
2021/12/21 18:43:53;;;;;;;28.88;9.80;;;5.70;99.90;;;;;;6156568;23;20005;-70
2021/12/21 18:46:21;;;;;;;27.85;11.80;;;5.60;99.90;;;;;;6156624;23;20009;-70
2021/12/21 18:48:51;;;;;;;31.85;12.45;;;5.60;99.90;;;;;;6156481;23;20300;-70
2021/12/21 18:51:19;;;;;;;35.50;13.45;;;5.60;99.90;;;;;;6156655;23;20432;-70
2021/12/21 18:53:47;;;;;;;39.50;14.50;;;5.50;99.90;;;;;;6156849;23;20005;-70
2021/12/21 18:56:14;;;;;;;35.67;14.23;;;5.50;99.90;;;;;;6156749;23;20305;-70
2021/12/21 18:58:42;;;;;;;40.63;14.50;;;5.40;99.90;;;;;;6154912;23;20012;-70
2021/12/21 19:01:09;;;;;;;30.25;13.30;;;5.40;99.90;;;;;;6156363;23;20074;-70
2021/12/21 19:03:37;;;;;;;34.25;14.73;;;5.40;99.90;;;;;;6156236;23;20006;-70
2021/12/21 19:06:03;;;;;;;42.00;14.05;;;5.30;99.90;;;;;;6156756;23;20009;-70
2021/12/21 19:08:31;;;;;;;30.33;12.98;;;5.30;99.90;;;;;;6156291;23;20051;-70
2021/12/21 19:10:58;;;;;;;27.02;13.75;;;5.30;99.90;;;;;;6156396;23;20006;-70
2021/12/21 19:13:26;;;;;;;29.42;12.82;;;5.30;99.90;;;;;;6156129;23;20443;-70
2021/12/21 19:15:57;;;;;;;27.23;10.70;;;5.30;99.90;;;;;;6156606;23;20044;-70
2021/12/21 19:18:25;;;;;;;27.17;11.50;;;5.20;99.90;;;;;;6156312;23;20013;-70
2021/12/21 19:20:57;;;;;;;23.70;10.93;;;5.20;99.90;;;;;;6156220;23;20096;-70
2021/12/21 19:23:24;;;;;;;23.58;11.48;;;5.20;99.90;;;;;;6156561;23;20121;-70
2021/12/21 19:25:53;;;;;;;33.05;12.45;;;5.20;99.90;;;;;;6156252;23;20017;-70
2021/12/21 19:28:24;;;;;;;37.13;14.20;;;5.10;99.90;;;;;;6156176;23;20009;-70
2021/12/21 19:30:54;;;;;;;35.55;15.05;;;5.10;99.90;;;;;;6130359;23;20037;-70
2021/12/21 19:33:21;;;;;;;47.63;16.83;;;5.00;99.90;;;;;;6156064;23;20002;-70
2021/12/21 19:35:49;;;;;;;48.22;17.73;;;5.10;99.90;;;;;;6156223;23;20106;-70
2021/12/21 19:38:17;;;;;;;58.35;19.25;;;5.10;99.90;;;;;;6156105;23;20452;-70
2021/12/21 19:40:45;;;;;;;54.58;18.15;;;5.10;99.90;;;;;;6156441;23;20017;-70
2021/12/21 19:43:12;;;;;;;55.10;19.73;;;5.00;99.90;;;;;;6157082;23;20048;-70
2021/12/21 19:45:40;;;;;;;46.47;19.67;;;5.00;99.90;;;;;;6159772;23;20010;-70
2021/12/21 19:48:08;;;;;;;47.85;19.95;;;5.00;99.90;;;;;;6159837;23;20331;-70
2021/12/21 19:50:36;;;;;;;52.13;19.52;;;5.00;99.90;;;;;;6159859;23;20006;-70
2021/12/21 19:53:03;;;;;;;48.25;20.85;;;5.00;99.90;;;;;;6159380;23;20020;-70
2021/12/21 19:55:30;;;;;;;59.13;22.17;;;5.00;99.90;;;;;;6159463;23;20009;-70
2021/12/21 19:57:58;;;;;;;54.78;19.73;;;5.00;99.90;;;;;;6159461;23;20061;-70
2021/12/21 20:00:33;;;;;;;53.17;21.33;;;4.90;99.90;;;;;;6158994;23;20021;-70
2021/12/21 20:03:01;;;;;;;56.03;22.30;;;5.00;99.90;;;;;;6159360;23;20006;-70
2021/12/21 20:05:29;;;;;;;64.93;23.35;;;5.00;99.90;;;;;;6159366;23;20005;-70
2021/12/21 20:07:56;;;;;;;93.35;34.85;;;4.90;99.90;;;;;;6157721;23;20006;-70
2021/12/21 20:10:25;;;;;;;82.90;33.53;;;4.90;99.90;;;;;;6159736;23;20013;-70
2021/12/21 20:12:55;;;;;;;49.97;22.05;;;4.80;99.90;;;;;;6159217;23;20105;-70
2021/12/21 20:15:31;;;;;;;52.55;20.27;;;4.80;99.90;;;;;;6159370;23;20001;-70
2021/12/21 20:18:01;;;;;;;49.17;19.77;;;4.80;99.90;;;;;;6159167;23;20006;-70
2021/12/21 20:20:29;;;;;;;41.75;18.67;;;4.70;99.90;;;;;;6159281;23;20447;-70
2021/12/21 20:22:57;;;;;;;40.28;18.45;;;4.70;99.90;;;;;;6159690;23;20101;-70
2021/12/21 20:25:25;;;;;;;47.75;19.33;;;4.80;99.90;;;;;;6159573;23;20010;-70
2021/12/21 20:27:56;;;;;;;52.55;19.45;;;4.70;99.90;;;;;;6159345;23;20013;-70
2021/12/21 20:30:23;;;;;;;55.58;21.17;;;4.70;99.90;;;;;;6159610;23;20014;-70
2021/12/21 20:32:50;;;;;;;52.28;21.48;;;4.70;99.90;;;;;;6159257;23;20029;-70
2021/12/21 20:35:19;;;;;;;52.30;20.55;;;4.70;99.90;;;;;;6159333;23;20057;-70
2021/12/21 20:37:45;;;;;;;46.13;19.42;;;4.70;99.90;;;;;;6159527;23;20056;-70
2021/12/21 20:40:12;;;;;;;45.47;18.15;;;4.60;99.90;;;;;;6159494;23;20325;-70
2021/12/21 20:42:42;;;;;;;67.75;20.08;;;4.60;99.90;;;;;;6159305;23;20025;-70
2021/12/21 20:45:09;;;;;;;54.95;19.48;;;4.60;99.90;;;;;;6159613;23;20013;-70
2021/12/21 20:47:36;;;;;;;44.20;17.00;;;4.70;99.90;;;;;;6159277;23;20006;-70
2021/12/21 20:50:05;;;;;;;49.55;20.58;;;4.70;99.90;;;;;;6157587;23;20029;-70
2021/12/21 20:52:32;;;;;;;54.92;20.52;;;4.60;99.90;;;;;;6159542;23;20368;-70
2021/12/21 20:54:59;;;;;;;42.78;19.42;;;4.70;99.90;;;;;;6158211;23;20081;-70
2021/12/21 20:57:25;;;;;;;57.05;21.73;;;4.70;99.90;;;;;;6158017;23;20076;-70
2021/12/21 20:59:52;;;;;;;46.03;21.65;;;4.70;99.90;;;;;;6157842;23;20013;-70
2021/12/21 21:02:19;;;;;;;55.65;20.30;;;4.70;99.90;;;;;;6157150;23;20013;-70
2021/12/21 21:04:45;;;;;;;58.80;19.45;;;4.70;99.90;;;;;;6157508;23;20424;-70
2021/12/21 21:07:12;;;;;;;38.17;16.92;;;4.70;99.90;;;;;;6157895;23;20015;-70
2021/12/21 21:09:38;;;;;;;58.65;18.77;;;4.70;99.90;;;;;;6157818;23;19998;-70
2021/12/21 21:12:08;;;;;;;45.28;19.42;;;4.70;99.90;;;;;;6157480;23;20009;-70
2021/12/21 21:14:36;;;;;;;46.13;19.65;;;4.80;99.90;;;;;;6155912;23;20088;-70
2021/12/21 21:17:03;;;;;;;45.47;17.98;;;4.80;99.90;;;;;;6155825;23;20009;-70
2021/12/21 21:19:30;;;;;;;42.08;19.42;;;4.80;99.90;;;;;;6157336;23;20020;-70
2021/12/21 21:21:57;;;;;;;50.42;20.17;;;4.80;99.90;;;;;;6155731;23;20025;-70
2021/12/21 21:24:27;;;;;;;44.45;19.00;;;4.80;99.90;;;;;;6157300;23;20091;-70
2021/12/21 21:26:54;;;;;;;54.92;20.17;;;4.80;99.90;;;;;;6157155;23;20005;-69
2021/12/21 21:29:22;;;;;;;45.72;17.40;;;4.80;99.90;;;;;;6156305;23;20012;-70
2021/12/21 21:31:51;;;;;;;40.25;18.27;;;4.80;99.90;;;;;;6157170;23;20012;-69
2021/12/21 21:34:18;;;;;;;49.97;19.83;;;4.90;99.90;;;;;;6157575;23;20045;-69
2021/12/21 21:36:47;;;;;;;41.80;18.23;;;4.90;99.90;;;;;;6157508;23;20013;-69
2021/12/21 21:39:14;;;;;;;61.80;17.30;;;4.90;99.90;;;;;;6157080;23;20063;-69
2021/12/21 21:41:41;;;;;;;42.03;17.95;;;4.90;99.90;;;;;;6156454;23;20026;-70
2021/12/21 21:44:07;;;;;;;49.30;18.08;;;4.90;99.90;;;;;;6156151;23;20025;-70
2021/12/21 21:46:34;;;;;;;40.25;17.85;;;4.90;99.90;;;;;;6157334;23;20024;-69
2021/12/21 21:49:01;;;;;;;42.85;17.15;;;4.90;99.90;;;;;;6154370;23;20025;-70
2021/12/21 21:51:28;;;;;;;40.90;16.60;;;4.70;99.90;;;;;;6156604;23;20029;-70
2021/12/21 21:53:54;;;;;;;39.10;15.85;;;4.80;99.90;;;;;;6157063;23;20009;-70
2021/12/21 21:56:24;;;;;;;46.47;15.80;;;4.80;99.90;;;;;;6157021;23;20005;-70
2021/12/21 21:58:57;;;;;;;44.17;16.95;;;4.80;99.90;;;;;;6157097;23;20005;-70
2021/12/21 22:01:30;;;;;;;38.70;17.08;;;4.80;99.90;;;;;;6156677;23;20450;-70
2021/12/21 22:03:59;;;;;;;39.40;16.80;;;4.80;99.90;;;;;;6156931;23;20010;-70
2021/12/21 22:06:25;;;;;;;40.97;16.67;;;4.90;99.90;;;;;;6156528;23;20335;-70
2021/12/21 22:08:53;;;;;;;44.38;16.27;;;4.90;99.90;;;;;;6156601;23;20328;-70
2021/12/21 22:11:23;;;;;;;53.10;18.80;;;4.90;99.90;;;;;;6157110;23;20379;-70
2021/12/21 22:13:50;;;;;;;45.40;16.15;;;5.00;99.90;;;;;;6156841;23;20002;-70
2021/12/21 22:16:20;;;;;;;52.22;17.85;;;5.00;99.90;;;;;;6155799;23;20325;-70
2021/12/21 22:18:48;;;;;;;43.97;17.25;;;5.00;99.90;;;;;;6156780;23;20017;-70
2021/12/21 22:21:14;;;;;;;43.58;15.60;;;5.00;99.90;;;;;;6156967;23;20012;-70
2021/12/21 22:23:44;;;;;;;44.05;17.73;;;5.10;99.90;;;;;;6156773;23;20006;-70
2021/12/21 22:26:16;;;;;;;41.38;15.02;;;5.10;99.90;;;;;;6157006;23;20010;-70
2021/12/21 22:28:44;;;;;;;34.15;15.30;;;5.00;99.90;;;;;;6156749;23;20009;-70
2021/12/21 22:31:20;;;;;;;31.65;14.35;;;5.10;99.90;;;;;;6155059;23;20005;-70
2021/12/21 22:33:49;;;;;;;34.72;14.23;;;5.10;99.90;;;;;;6156572;23;20006;-69
2021/12/21 22:36:17;;;;;;;39.28;16.08;;;5.10;99.90;;;;;;6156571;23;20002;-70
2021/12/21 22:38:46;;;;;;;38.00;15.93;;;5.20;99.90;;;;;;6156563;23;20355;-70
2021/12/21 22:41:18;;;;;;;44.95;14.85;;;5.20;99.90;;;;;;6154861;23;20045;-70
2021/12/21 22:43:45;;;;;;;45.70;16.83;;;5.20;99.90;;;;;;6154911;23;20002;-70
2021/12/21 22:46:14;;;;;;;35.03;14.65;;;5.20;99.90;;;;;;6156439;23;20033;-70
2021/12/21 22:48:45;;;;;;;36.30;14.63;;;5.20;99.90;;;;;;6156522;23;20009;-70
2021/12/21 22:51:13;;;;;;;33.15;13.90;;;5.20;99.90;;;;;;6157170;23;20328;-70
2021/12/21 22:53:40;;;;;;;30.23;13.77;;;5.20;99.90;;;;;;6156524;23;20029;-69
2021/12/21 22:56:07;;;;;;;41.80;15.35;;;5.20;99.90;;;;;;6156556;23;20009;-70
2021/12/21 22:58:35;;;;;;;35.80;13.75;;;5.30;99.90;;;;;;6156508;23;20001;-70
2021/12/21 23:01:04;;;;;;;32.20;13.73;;;5.30;99.90;;;;;;6156194;23;20313;-70
2021/12/21 23:03:33;;;;;;;39.38;14.35;;;5.40;99.90;;;;;;6156823;23;20057;-69
2021/12/21 23:06:01;;;;;;;31.38;14.32;;;5.40;99.90;;;;;;6156156;23;20001;-69
2021/12/21 23:08:28;;;;;;;32.17;14.00;;;5.40;99.90;;;;;;6156342;23;20088;-70
2021/12/21 23:10:55;;;;;;;41.30;13.68;;;5.40;99.90;;;;;;6154742;23;20387;-70
2021/12/21 23:13:21;;;;;;;35.03;14.27;;;5.40;99.90;;;;;;6156261;23;20080;-70
2021/12/21 23:15:51;;;;;;;26.95;13.25;;;5.40;99.90;;;;;;6156280;23;20002;-70
2021/12/21 23:18:19;;;;;;;39.38;14.27;;;5.40;99.90;;;;;;6156112;23;20005;-70
2021/12/21 23:20:47;;;;;;;31.13;12.60;;;5.40;99.90;;;;;;6154695;23;20018;-70
2021/12/21 23:23:19;;;;;;;37.13;15.93;;;5.40;99.90;;;;;;6156610;23;20005;-70
2021/12/21 23:25:46;;;;;;;49.97;16.38;;;5.40;99.90;;;;;;6154691;23;20009;-70
2021/12/21 23:28:13;;;;;;;34.63;13.95;;;5.40;99.90;;;;;;6156192;23;20387;-70
2021/12/21 23:30:40;;;;;;;35.60;13.60;;;5.40;99.90;;;;;;6156121;23;20005;-70
2021/12/21 23:33:07;;;;;;;30.50;13.65;;;5.40;99.90;;;;;;6156074;23;20013;-70
2021/12/21 23:35:34;;;;;;;41.75;13.98;;;5.40;99.90;;;;;;6156550;23;20012;-70
2021/12/21 23:38:01;;;;;;;33.50;13.45;;;5.40;99.90;;;;;;6156438;23;20013;-70
2021/12/21 23:40:28;;;;;;;31.88;13.40;;;5.30;99.90;;;;;;6156173;23;20017;-70
2021/12/21 23:42:55;;;;;;;33.35;15.23;;;5.40;99.90;;;;;;6156033;23;20439;-70
2021/12/21 23:45:21;;;;;;;34.17;14.00;;;5.30;99.90;;;;;;6156088;23;20009;-70
2021/12/21 23:47:48;;;;;;;33.40;14.20;;;5.30;99.90;;;;;;6155996;23;20037;-70
2021/12/21 23:50:23;;;;;;;38.88;14.20;;;5.30;99.90;;;;;;6156397;23;20329;-70
2021/12/21 23:52:50;;;;;;;31.33;14.07;;;5.30;99.90;;;;;;6156472;23;20017;-70
2021/12/21 23:55:16;;;;;;;31.85;13.68;;;5.40;99.90;;;;;;6154545;23;20055;-70
2021/12/21 23:57:43;;;;;;;33.85;13.43;;;5.40;99.90;;;;;;6156437;23;20084;-70
